»·PEaware :: N982CA KCMA-KSNA

N982CA :: KCMA-KSNA

FLIGHT INFORMATION

Flight Status: Arrived
Operator: Privately registered:
United States
More flights under this callsign
Pilot: David C. (25479)
Aircraft: Unknown
(TBM)
More flights by this aircraft type
Origin: KCMA Camarillo
United States
Destination: KSNA John Wayne-Orange Co
United States
More flights between these airports :: More routes between these airports
Route: +VTU V208 SXC SLI+
File this flight plan on PilotEdge
Remarks: VTUP7
Altitude:
(Current/Filed)
5,000ft
Speed:
(Current/Filed)
190kts
Departed: 29-Nov-20 05:19 PM
Arrived: 29-Nov-20 06:01 PM
Distance/Time
Traveled:
69nm/0:42
Distance/Time
To Go:
Arrived

Flight Plot

Page will automatically refresh every two minutes.


Map Options




Map Legend


Flown Route
Filed Route
Departure Airport
Arrival Airport
Navaid (VOR, NDB)
Fix

Horizontal Profiles

Position Reports

Time Latitude Longitude Heading Altitude Ground
Speed
29-Nov-20 16:51 34.209755 -119.077462 84 78ft 0kts
29-Nov-20 16:51 34.209755 -119.077462 84 78ft 0kts
29-Nov-20 16:52 34.209755 -119.077462 84 78ft 0kts
29-Nov-20 16:53 34.209755 -119.077462 84 78ft 0kts
29-Nov-20 16:54 34.209755 -119.077462 84 78ft 0kts
29-Nov-20 16:55 34.209755 -119.077462 84 78ft 0kts
29-Nov-20 16:56 34.209755 -119.077462 84 78ft 0kts
29-Nov-20 16:57 34.209755 -119.077462 84 78ft 0kts
29-Nov-20 16:58 34.209755 -119.077462 84 78ft 0kts
29-Nov-20 16:59 34.209755 -119.077462 84 78ft 0kts
29-Nov-20 17:00 34.209755 -119.077462 84 78ft 0kts
29-Nov-20 17:01 34.209755 -119.077462 84 78ft 0kts
29-Nov-20 17:02 34.209755 -119.077462 84 78ft 0kts
29-Nov-20 17:03 34.209755 -119.077462 84 78ft 0kts
29-Nov-20 17:04 34.209755 -119.077462 84 78ft 0kts
29-Nov-20 17:05 34.209755 -119.077462 84 78ft 0kts
29-Nov-20 17:06 34.209755 -119.077462 84 78ft 0kts
29-Nov-20 17:07 34.209755 -119.077462 84 78ft 0kts
29-Nov-20 17:08 34.209755 -119.077462 84 78ft 0kts
29-Nov-20 17:09 34.209755 -119.077462 84 78ft 0kts
29-Nov-20 17:10 34.209755 -119.077462 84 78ft 0kts
29-Nov-20 17:11 34.209755 -119.077462 84 78ft 0kts
29-Nov-20 17:12 34.209755 -119.077462 84 78ft 0kts
29-Nov-20 17:13 34.209755 -119.077462 84 78ft 0kts
29-Nov-20 17:14 34.210805 -119.078578 269 79ft 16kts
29-Nov-20 17:15 34.211435 -119.084562 351 80ft 13kts
29-Nov-20 17:16 34.212798 -119.084591 0 78ft 0kts
29-Nov-20 17:17 34.212798 -119.084591 0 78ft 0kts
29-Nov-20 17:18 34.213725 -119.088232 271 75ft 71kts
29-Nov-20 17:19 34.220468 -119.118384 298 709ft 96kts
29-Nov-20 17:20 34.227934 -119.149252 286 1530ft 104kts
29-Nov-20 17:21 34.240530 -119.200130 288 2454ft 186kts
29-Nov-20 17:22 34.255705 -119.261513 287 3459ft 194kts
29-Nov-20 17:23 34.286326 -119.304328 25 4448ft 192kts
29-Nov-20 17:24 34.288757 -119.249211 125 5434ft 197kts
29-Nov-20 17:25 34.250580 -119.201169 137 6429ft 199kts
29-Nov-20 17:26 34.208564 -119.154648 136 6987ft 214kts
29-Nov-20 17:27 34.164041 -119.104614 135 7026ft 220kts
29-Nov-20 17:28 34.119510 -119.054204 131 7017ft 222kts
29-Nov-20 17:29 34.088467 -118.995330 171 6996ft 226kts
29-Nov-20 17:30 34.033503 -119.029245 194 6998ft 228kts
29-Nov-20 17:31 33.970559 -119.034977 179 6999ft 228kts
29-Nov-20 17:32 33.906960 -119.032643 175 6999ft 228kts
29-Nov-20 17:33 33.841918 -119.028179 175 7002ft 244kts
29-Nov-20 17:34 33.777797 -119.006673 130 6993ft 244kts
29-Nov-20 17:35 33.739994 -118.939464 125 6999ft 243kts
29-Nov-20 17:36 33.703539 -118.871252 125 6996ft 243kts
29-Nov-20 17:37 33.658230 -118.810377 132 6974ft 243kts
29-Nov-20 17:38 33.613970 -118.749464 129 6998ft 243kts
29-Nov-20 17:39 33.569590 -118.687969 130 6999ft 243kts
29-Nov-20 17:40 33.528584 -118.623970 106 6995ft 241kts
29-Nov-20 17:41 33.529292 -118.544906 82 6299ft 233kts
29-Nov-20 17:42 33.537619 -118.469354 81 5506ft 230kts
29-Nov-20 17:43 33.546208 -118.393408 81 5070ft 221kts
29-Nov-20 17:44 33.554250 -118.320965 81 5047ft 218kts
29-Nov-20 17:45 33.562211 -118.248826 81 5046ft 218kts
29-Nov-20 17:46 33.570102 -118.176970 81 5039ft 218kts
29-Nov-20 17:47 33.578097 -118.104855 80 4989ft 218kts
29-Nov-20 17:48 33.580795 -118.051963 87 4391ft 137kts
29-Nov-20 17:49 33.581213 -118.006550 87 3688ft 132kts
29-Nov-20 17:50 33.589532 -117.968011 36 3598ft 121kts
29-Nov-20 17:51 33.619280 -117.949363 23 3533ft 122kts
29-Nov-20 17:52 33.650104 -117.933368 22 3497ft 119kts
29-Nov-20 17:53 33.680748 -117.917654 22 3497ft 119kts
29-Nov-20 17:54 33.711299 -117.902015 22 3499ft 119kts
29-Nov-20 17:55 33.741896 -117.886378 22 3499ft 119kts
29-Nov-20 17:56 33.770720 -117.868495 68 3251ft 110kts
29-Nov-20 17:57 33.751301 -117.845922 156 1734ft 139kts
29-Nov-20 17:58 33.715423 -117.843516 206 808ft 138kts
29-Nov-20 17:59 33.684325 -117.863295 209 124ft 113kts
29-Nov-20 18:00 33.675964 -117.869811 297 55ft 0kts
29-Nov-20 18:01 33.675044 -117.870928 214 54ft 16kts

Navigation Log

Ident Type
Flight plan parsing failed, navigation log unavailable